Time;durP1;ratioP1;P1;durP2;ratioP2;P2;SDS_P1;SDS_P2;PMS_P1;PMS_P2;Temp;Humidity;BMP_temperature;BMP_pressure;BME280_temperature;BME280_humidity;BME280_pressure;Samples;Min_cycle;Max_cycle;Signal;HPM_P1;HPM_P2
2022/03/25 00:00:28;;;;;;;28.73;20.30;;;5.00;94.40;;;;;;5069197;28;35544;-58
2022/03/25 00:02:56;;;;;;;24.38;19.08;;;5.00;94.20;;;;;;5071375;28;37404;-58
2022/03/25 00:05:23;;;;;;;26.27;20.00;;;4.90;94.10;;;;;;5072031;27;37739;-57
2022/03/25 00:07:50;;;;;;;27.85;19.23;;;4.90;94.40;;;;;;5072359;28;37659;-57
2022/03/25 00:10:19;;;;;;;55.20;18.58;;;4.80;94.20;;;;;;5070918;28;37531;-57
2022/03/25 00:12:46;;;;;;;61.20;18.65;;;4.80;94.40;;;;;;5071061;28;37066;-57
2022/03/25 00:15:14;;;;;;;22.10;17.17;;;4.70;94.80;;;;;;5071297;27;38779;-58
2022/03/25 00:17:42;;;;;;;25.23;18.48;;;4.70;95.00;;;;;;5072482;27;37712;-57
2022/03/25 00:20:10;;;;;;;25.33;19.77;;;4.60;94.60;;;;;;5071223;28;36776;-57
2022/03/25 00:22:38;;;;;;;23.75;17.73;;;4.60;94.60;;;;;;5071731;28;37360;-57
2022/03/25 00:25:06;;;;;;;108.60;19.48;;;4.60;94.70;;;;;;5071640;27;37717;-58
2022/03/25 00:27:33;;;;;;;19.17;14.40;;;4.50;94.70;;;;;;5071323;27;38139;-57
2022/03/25 00:30:01;;;;;;;64.85;14.77;;;4.60;94.80;;;;;;5069611;28;36614;-57
2022/03/25 00:32:28;;;;;;;250.35;23.25;;;4.50;94.70;;;;;;5071633;28;37130;-57
2022/03/25 00:34:57;;;;;;;20.15;12.77;;;4.50;94.90;;;;;;5071631;27;38547;-57
2022/03/25 00:37:25;;;;;;;16.33;13.25;;;4.40;94.80;;;;;;5071880;28;37299;-57
2022/03/25 00:39:53;;;;;;;15.70;13.27;;;4.40;94.90;;;;;;5071103;28;37130;-57
2022/03/25 00:42:20;;;;;;;17.75;14.45;;;4.40;94.90;;;;;;5070410;28;36255;-57
2022/03/25 00:44:48;;;;;;;20.65;15.82;;;4.40;94.80;;;;;;5071160;27;39483;-56
2022/03/25 00:47:15;;;;;;;22.10;16.52;;;4.40;94.60;;;;;;5071272;27;37373;-58
2022/03/25 00:49:43;;;;;;;23.83;17.33;;;4.30;94.50;;;;;;5070640;28;37375;-58
2022/03/25 00:52:12;;;;;;;22.67;17.15;;;4.30;94.70;;;;;;5070661;27;37715;-58
2022/03/25 00:54:39;;;;;;;23.88;17.52;;;4.30;94.70;;;;;;5070843;28;38018;-58
2022/03/25 00:57:06;;;;;;;21.70;16.73;;;4.20;94.60;;;;;;5071355;28;37635;-58
2022/03/25 00:59:34;;;;;;;21.58;15.60;;;4.20;94.60;;;;;;5070133;27;38275;-58
2022/03/25 01:02:01;;;;;;;17.35;14.18;;;4.20;94.70;;;;;;5070068;27;37385;-58
2022/03/25 01:04:29;;;;;;;21.27;15.90;;;4.10;94.70;;;;;;5069587;28;36455;-58
2022/03/25 01:06:56;;;;;;;20.88;16.40;;;4.10;94.90;;;;;;5071474;27;37190;-57
2022/03/25 01:09:25;;;;;;;22.25;15.43;;;4.20;95.20;;;;;;5069027;27;37326;-58
2022/03/25 01:11:53;;;;;;;24.98;17.08;;;4.20;95.20;;;;;;5070317;28;37764;-58
2022/03/25 01:14:21;;;;;;;27.70;20.25;;;4.30;95.10;;;;;;5071113;27;39555;-57
2022/03/25 01:16:48;;;;;;;36.97;20.98;;;4.20;95.20;;;;;;5070765;28;36444;-58
2022/03/25 01:19:16;;;;;;;41.60;22.55;;;4.30;95.40;;;;;;5071213;27;39393;-58
2022/03/25 01:21:43;;;;;;;36.08;22.85;;;4.30;95.50;;;;;;5069104;28;37603;-58
2022/03/25 01:24:10;;;;;;;44.92;24.90;;;4.30;95.50;;;;;;5071495;27;36411;-58
2022/03/25 01:26:39;;;;;;;34.83;22.92;;;4.30;95.70;;;;;;5070841;27;37368;-57
2022/03/25 01:29:07;;;;;;;32.08;21.55;;;4.40;95.80;;;;;;5071308;27;41103;-57
2022/03/25 01:31:34;;;;;;;35.85;23.63;;;3.70;95.30;;;;;;5069588;28;39148;-57
2022/03/25 01:34:02;;;;;;;39.90;25.15;;;4.30;95.40;;;;;;5069255;27;36369;-57
2022/03/25 01:36:30;;;;;;;38.95;25.10;;;4.30;95.40;;;;;;5067975;28;37502;-58
2022/03/25 01:38:58;;;;;;;38.80;24.85;;;4.30;95.60;;;;;;5070122;27;36773;-57
2022/03/25 01:41:26;;;;;;;34.45;23.35;;;4.30;95.50;;;;;;5069172;28;37513;-57
2022/03/25 01:43:57;;;;;;;47.65;22.85;;;4.30;95.40;;;;;;5069965;28;37480;-57
2022/03/25 01:46:26;;;;;;;32.85;22.17;;;4.30;95.30;;;;;;5070654;27;37059;-57
2022/03/25 01:48:54;;;;;;;38.22;23.70;;;4.30;95.20;;;;;;5070725;28;37163;-57
2022/03/25 01:51:25;;;;;;;50.78;24.85;;;4.20;95.10;;;;;;5068274;27;37377;-57
2022/03/25 01:53:52;;;;;;;44.25;23.52;;;4.20;95.30;;;;;;5069917;27;39243;-57
2022/03/25 01:56:22;;;;;;;124.13;27.45;;;4.20;95.50;;;;;;5070117;28;38267;-58
2022/03/25 01:58:50;;;;;;;130.68;27.75;;;4.20;95.70;;;;;;5068400;27;36442;-57
2022/03/25 02:01:19;;;;;;;101.25;25.50;;;4.10;95.80;;;;;;5069974;27;40085;-57
2022/03/25 02:03:47;;;;;;;116.53;25.00;;;4.10;95.90;;;;;;5070906;28;37857;-57
2022/03/25 02:06:14;;;;;;;97.65;22.35;;;4.10;95.90;;;;;;5069745;27;38053;-57
2022/03/25 02:08:41;;;;;;;88.22;23.20;;;4.10;95.80;;;;;;5070082;28;37116;-57
2022/03/25 02:11:09;;;;;;;36.45;20.75;;;4.00;95.70;;;;;;5069304;27;37525;-57
2022/03/25 02:13:37;;;;;;;75.53;24.17;;;4.00;95.70;;;;;;5068591;27;37647;-57
2022/03/25 02:16:05;;;;;;;179.18;25.83;;;3.90;95.70;;;;;;5067454;27;38394;-57
2022/03/25 02:18:34;;;;;;;41.17;21.58;;;3.80;95.90;;;;;;5070003;27;36447;-57
2022/03/25 02:21:01;;;;;;;123.40;23.60;;;3.80;96.10;;;;;;5069099;28;37538;-58
2022/03/25 02:23:30;;;;;;;55.22;21.63;;;3.80;96.10;;;;;;5069595;28;37645;-58
2022/03/25 02:25:59;;;;;;;49.72;21.02;;;3.90;96.10;;;;;;5069712;28;37137;-57
2022/03/25 02:28:27;;;;;;;68.30;20.45;;;3.90;96.10;;;;;;5069857;28;35597;-58
2022/03/25 02:30:54;;;;;;;49.30;20.90;;;3.80;95.90;;;;;;5069632;27;40194;-57
2022/03/25 02:33:21;;;;;;;36.47;20.85;;;3.80;95.80;;;;;;5069346;27;37747;-57
2022/03/25 02:35:50;;;;;;;32.55;19.92;;;3.80;95.80;;;;;;5069757;27;37538;-57
2022/03/25 02:38:19;;;;;;;37.50;20.35;;;3.80;95.90;;;;;;5069868;27;37138;-58
2022/03/25 02:40:48;;;;;;;60.85;20.70;;;3.80;96.00;;;;;;5069658;28;38616;-57
2022/03/25 02:43:16;;;;;;;33.35;20.00;;;3.80;96.00;;;;;;5069166;28;38540;-58
2022/03/25 02:45:44;;;;;;;28.33;20.58;;;3.80;96.10;;;;;;5068959;28;37586;-57
2022/03/25 02:48:12;;;;;;;31.73;20.60;;;3.80;96.20;;;;;;5070260;28;36673;-57
2022/03/25 02:50:40;;;;;;;31.15;20.33;;;3.80;96.10;;;;;;5069489;27;39126;-57
2022/03/25 02:53:07;;;;;;;27.73;18.50;;;3.70;95.80;;;;;;5070358;27;38515;-57
2022/03/25 02:55:35;;;;;;;26.95;19.58;;;3.70;95.70;;;;;;5070604;28;36237;-57
2022/03/25 02:58:04;;;;;;;29.52;20.90;;;3.70;95.70;;;;;;5068269;27;39478;-57
2022/03/25 03:00:31;;;;;;;30.02;21.30;;;3.70;95.80;;;;;;5069492;28;36249;-57
2022/03/25 03:03:00;;;;;;;30.98;21.27;;;3.70;95.80;;;;;;5070510;27;40755;-57
2022/03/25 03:05:28;;;;;;;26.50;19.33;;;3.60;95.80;;;;;;5070094;27;36788;-57
2022/03/25 03:07:55;;;;;;;28.02;20.85;;;3.60;95.60;;;;;;5070376;27;37879;-57
2022/03/25 03:10:24;;;;;;;26.70;19.63;;;3.60;95.60;;;;;;5068435;28;36250;-57
2022/03/25 03:12:53;;;;;;;26.85;18.83;;;3.60;95.50;;;;;;5068547;28;36464;-57
2022/03/25 03:15:23;;;;;;;64.13;21.08;;;3.50;95.60;;;;;;5068629;28;36232;-57
2022/03/25 03:17:50;;;;;;;169.65;22.73;;;3.50;95.80;;;;;;5069037;27;37574;-57
2022/03/25 03:20:20;;;;;;;122.00;21.10;;;3.50;95.70;;;;;;5069562;27;37604;-58
2022/03/25 03:22:48;;;;;;;35.22;18.67;;;3.40;95.80;;;;;;5068220;27;37702;-57
2022/03/25 03:25:15;;;;;;;27.50;20.50;;;3.30;95.80;;;;;;5070109;27;38589;-57
2022/03/25 03:27:43;;;;;;;27.10;19.40;;;3.20;95.80;;;;;;5072619;28;38394;-57
2022/03/25 03:30:12;;;;;;;24.83;17.90;;;3.20;96.00;;;;;;5071843;27;38898;-57
2022/03/25 03:32:41;;;;;;;22.23;17.02;;;3.20;96.00;;;;;;5072882;28;37695;-57
2022/03/25 03:35:09;;;;;;;27.40;18.88;;;3.30;95.80;;;;;;5073257;27;36318;-57
2022/03/25 03:37:44;;;;;;;25.20;18.08;;;3.30;95.70;;;;;;5073370;27;35509;-58
2022/03/25 03:40:14;;;;;;;22.25;16.73;;;3.20;95.80;;;;;;5072236;28;38964;-57
2022/03/25 03:42:45;;;;;;;29.25;17.10;;;3.20;95.80;;;;;;5071232;27;39302;-57
2022/03/25 03:45:13;;;;;;;25.58;18.65;;;3.30;95.70;;;;;;5073528;27;37309;-58
2022/03/25 03:47:43;;;;;;;24.15;16.48;;;3.30;95.70;;;;;;5072905;28;36544;-57
2022/03/25 03:50:14;;;;;;;22.00;15.80;;;3.30;95.80;;;;;;5072237;28;37185;-57
2022/03/25 03:52:42;;;;;;;22.70;16.40;;;3.30;95.60;;;;;;5072937;27;37928;-57
2022/03/25 03:55:10;;;;;;;21.80;16.55;;;3.30;95.50;;;;;;5072261;27;36126;-58
2022/03/25 03:57:39;;;;;;;21.58;16.60;;;3.30;95.50;;;;;;5067120;28;38792;-58
2022/03/25 04:00:09;;;;;;;22.08;16.02;;;3.30;95.70;;;;;;5069763;27;38406;-58
2022/03/25 04:02:36;;;;;;;20.23;15.85;;;3.40;95.80;;;;;;5070811;27;38537;-57
2022/03/25 04:05:06;;;;;;;21.35;17.10;;;3.40;95.70;;;;;;5072221;27;37514;-57
2022/03/25 04:07:39;;;;;;;22.20;17.08;;;3.40;95.70;;;;;;5072253;28;36251;-57
2022/03/25 04:10:07;;;;;;;21.65;16.17;;;3.40;95.70;;;;;;5071309;28;37536;-58
2022/03/25 04:12:34;;;;;;;20.73;16.05;;;3.40;95.30;;;;;;5072256;28;37358;-57
2022/03/25 04:15:02;;;;;;;21.92;16.98;;;3.40;95.20;;;;;;5072537;27;38097;-57
2022/03/25 04:17:29;;;;;;;21.40;16.40;;;3.30;95.10;;;;;;5072826;27;36949;-57
2022/03/25 04:19:56;;;;;;;23.23;16.45;;;3.30;95.20;;;;;;5072241;28;38902;-57
2022/03/25 04:22:25;;;;;;;23.80;18.17;;;3.30;95.20;;;;;;5071505;27;38699;-57
2022/03/25 04:24:55;;;;;;;26.65;18.20;;;3.20;95.40;;;;;;5072565;27;38048;-57
2022/03/25 04:27:23;;;;;;;22.88;17.15;;;3.10;95.50;;;;;;5071989;27;35419;-57
2022/03/25 04:29:50;;;;;;;20.02;15.65;;;3.10;95.70;;;;;;5071721;27;38396;-57
2022/03/25 04:32:18;;;;;;;23.50;16.60;;;3.10;95.60;;;;;;5072265;27;37872;-57
2022/03/25 04:34:45;;;;;;;26.30;18.90;;;3.10;95.60;;;;;;5072035;28;37832;-57
2022/03/25 04:37:12;;;;;;;28.25;19.27;;;3.00;95.70;;;;;;5070837;27;38018;-57
2022/03/25 04:39:41;;;;;;;29.60;19.50;;;3.00;96.00;;;;;;5071201;28;38300;-57
2022/03/25 04:42:08;;;;;;;27.17;19.42;;;3.00;96.40;;;;;;5070295;28;39112;-57
2022/03/25 04:44:36;;;;;;;30.35;21.30;;;3.00;96.10;;;;;;5071061;28;36288;-58
2022/03/25 04:47:03;;;;;;;29.17;20.00;;;3.00;96.00;;;;;;5071524;27;36591;-57
2022/03/25 04:49:32;;;;;;;30.30;19.73;;;3.00;95.80;;;;;;5070406;28;37845;-57
2022/03/25 04:51:59;;;;;;;28.67;19.67;;;3.00;95.70;;;;;;5071196;28;37820;-57
2022/03/25 04:54:27;;;;;;;27.05;19.35;;;3.00;95.60;;;;;;5070897;27;37916;-57
2022/03/25 04:56:56;;;;;;;26.55;17.77;;;3.00;95.80;;;;;;5071461;27;37100;-57
2022/03/25 04:59:23;;;;;;;25.10;17.52;;;2.90;95.50;;;;;;5071160;27;37485;-57
2022/03/25 05:01:50;;;;;;;22.23;16.50;;;2.90;95.40;;;;;;5070863;27;38017;-57
2022/03/25 05:04:18;;;;;;;24.02;16.58;;;2.90;95.20;;;;;;5071384;27;37491;-57
2022/03/25 05:06:45;;;;;;;24.50;17.08;;;2.90;95.20;;;;;;5071038;28;37765;-57
2022/03/25 05:09:13;;;;;;;21.80;16.90;;;2.90;95.10;;;;;;5071176;27;37075;-57
2022/03/25 05:11:41;;;;;;;27.45;19.40;;;2.90;95.20;;;;;;5070837;28;40275;-56
2022/03/25 05:14:10;;;;;;;26.75;18.73;;;2.80;95.40;;;;;;5071180;27;37562;-57
2022/03/25 05:16:38;;;;;;;27.60;18.58;;;2.80;95.60;;;;;;5072157;27;38297;-57
2022/03/25 05:19:05;;;;;;;26.83;18.55;;;2.80;95.80;;;;;;5071819;28;38046;-57
2022/03/25 05:21:32;;;;;;;22.95;17.13;;;2.80;95.80;;;;;;5069888;27;37136;-56
2022/03/25 05:24:00;;;;;;;27.15;18.88;;;2.80;95.80;;;;;;5071169;27;38315;-57
2022/03/25 05:26:27;;;;;;;24.77;17.52;;;2.80;95.60;;;;;;5071285;28;36738;-57
2022/03/25 05:28:54;;;;;;;24.65;17.92;;;2.90;95.60;;;;;;5070850;28;37558;-57
2022/03/25 05:31:23;;;;;;;22.63;17.13;;;2.90;95.40;;;;;;5068122;27;37463;-57
2022/03/25 05:33:50;;;;;;;22.80;16.63;;;2.90;95.60;;;;;;5068941;27;37391;-57
2022/03/25 05:36:18;;;;;;;24.13;17.92;;;2.90;95.50;;;;;;5070690;28;35470;-57
2022/03/25 05:38:45;;;;;;;25.45;16.95;;;2.90;95.20;;;;;;5071140;28;37109;-56
2022/03/25 05:41:13;;;;;;;21.45;16.50;;;3.00;95.20;;;;;;5071120;27;37920;-57
2022/03/25 05:43:40;;;;;;;23.25;17.40;;;3.00;95.10;;;;;;5070972;28;38012;-57
2022/03/25 05:46:07;;;;;;;22.52;16.00;;;3.10;95.10;;;;;;5072348;27;36311;-57
2022/03/25 05:48:36;;;;;;;20.73;15.27;;;3.20;95.00;;;;;;5071531;28;37737;-57
2022/03/25 05:51:03;;;;;;;18.80;14.43;;;3.30;94.70;;;;;;5070146;27;37744;-57
2022/03/25 05:53:30;;;;;;;19.63;14.90;;;3.40;94.50;;;;;;5071064;27;36152;-57
2022/03/25 05:55:59;;;;;;;18.95;14.23;;;3.50;94.30;;;;;;5070905;27;36304;-58
2022/03/25 05:58:27;;;;;;;19.02;13.93;;;3.60;94.20;;;;;;5070518;27;38909;-57
2022/03/25 06:00:54;;;;;;;20.52;16.05;;;3.70;94.30;;;;;;5069849;27;38718;-57
2022/03/25 06:03:21;;;;;;;21.23;14.95;;;3.80;94.40;;;;;;5070070;27;40347;-57
2022/03/25 06:05:50;;;;;;;24.67;15.38;;;4.00;94.50;;;;;;5070142;27;38091;-57
2022/03/25 06:08:17;;;;;;;25.42;17.63;;;4.20;94.60;;;;;;5069812;27;38307;-57
2022/03/25 06:10:44;;;;;;;22.40;15.20;;;4.20;94.70;;;;;;5068169;28;36296;-57
2022/03/25 06:13:12;;;;;;;24.25;15.82;;;4.40;94.90;;;;;;5069507;27;37456;-57
2022/03/25 06:15:39;;;;;;;24.42;16.17;;;4.50;94.70;;;;;;5068146;28;37297;-57
2022/03/25 06:18:06;;;;;;;23.35;16.33;;;4.60;94.60;;;;;;5069359;27;38940;-57
2022/03/25 06:20:34;;;;;;;24.38;17.58;;;4.60;94.70;;;;;;5069763;27;37792;-57
2022/03/25 06:23:03;;;;;;;22.52;17.17;;;4.60;95.10;;;;;;5070060;27;36157;-57
2022/03/25 06:25:30;;;;;;;22.65;16.55;;;4.70;95.40;;;;;;5067968;27;36222;-58
2022/03/25 06:28:00;;;;;;;25.73;19.02;;;4.80;95.50;;;;;;5069554;28;37181;-58
2022/03/25 06:30:31;;;;;;;22.75;15.93;;;4.90;95.50;;;;;;5067281;28;37616;-57
2022/03/25 06:32:59;;;;;;;20.98;13.90;;;5.00;95.60;;;;;;5068688;27;37573;-58
2022/03/25 06:35:26;;;;;;;20.58;15.68;;;5.20;95.60;;;;;;5069211;27;35492;-58
2022/03/25 06:37:55;;;;;;;28.40;17.90;;;5.30;95.20;;;;;;5068157;28;38483;-57
2022/03/25 06:40:25;;;;;;;22.52;16.55;;;5.40;95.00;;;;;;5069145;27;37397;-57
2022/03/25 06:42:54;;;;;;;20.38;15.40;;;5.60;94.90;;;;;;5069457;27;36036;-58
2022/03/25 06:45:22;;;;;;;24.30;17.45;;;5.70;94.70;;;;;;5067818;27;37302;-57
2022/03/25 06:47:49;;;;;;;26.10;18.67;;;5.80;94.40;;;;;;5066814;28;37394;-57
2022/03/25 06:50:19;;;;;;;27.45;19.65;;;5.90;94.80;;;;;;5067682;27;37694;-58
2022/03/25 06:52:48;;;;;;;24.40;19.17;;;6.00;95.00;;;;;;5067961;28;39034;-58
2022/03/25 06:55:16;;;;;;;30.38;19.88;;;6.20;94.60;;;;;;5068420;28;34776;-58
2022/03/25 06:57:46;;;;;;;27.30;20.83;;;6.40;94.70;;;;;;5068054;28;38154;-57
2022/03/25 07:00:14;;;;;;;36.28;22.48;;;6.40;94.80;;;;;;5070369;28;37576;-58
2022/03/25 07:02:43;;;;;;;38.30;25.38;;;6.60;94.80;;;;;;5071869;28;38304;-58
2022/03/25 07:05:12;;;;;;;35.65;24.90;;;6.60;95.20;;;;;;5072605;28;37986;-57
2022/03/25 07:07:40;;;;;;;35.95;24.23;;;6.70;95.60;;;;;;5072001;27;38873;-58
2022/03/25 07:10:10;;;;;;;34.53;23.23;;;7.00;95.60;;;;;;5071100;27;37927;-58
2022/03/25 07:12:38;;;;;;;36.53;23.45;;;7.20;95.40;;;;;;5071659;27;37930;-58
2022/03/25 07:15:08;;;;;;;36.80;25.70;;;7.30;95.30;;;;;;5071845;27;36816;-58
2022/03/25 07:17:37;;;;;;;36.83;26.75;;;7.60;95.30;;;;;;5072931;28;37731;-57
2022/03/25 07:20:06;;;;;;;32.97;24.33;;;7.90;95.00;;;;;;5072755;28;37600;-58
2022/03/25 07:22:34;;;;;;;34.88;24.75;;;8.20;94.80;;;;;;5071941;27;39000;-57
2022/03/25 07:25:01;;;;;;;36.42;26.38;;;8.40;94.30;;;;;;5070451;27;38144;-58
2022/03/25 07:27:29;;;;;;;37.33;26.63;;;8.60;94.20;;;;;;5067978;28;41099;-58
2022/03/25 07:29:57;;;;;;;36.13;25.27;;;8.70;93.80;;;;;;5067864;27;37637;-58
2022/03/25 07:32:27;;;;;;;34.35;25.08;;;8.80;93.90;;;;;;5065196;28;38209;-58
2022/03/25 07:34:54;;;;;;;35.85;24.10;;;9.00;93.90;;;;;;5068264;28;35448;-58
2022/03/25 07:37:22;;;;;;;37.70;25.27;;;9.10;93.50;;;;;;5069010;27;37638;-58
2022/03/25 07:39:49;;;;;;;36.08;26.20;;;9.30;93.80;;;;;;5069670;27;37802;-58
2022/03/25 07:42:17;;;;;;;36.05;25.67;;;9.40;93.80;;;;;;5069091;27;36374;-58
2022/03/25 07:44:44;;;;;;;39.92;26.20;;;9.60;94.00;;;;;;5067539;27;37196;-58
2022/03/25 07:47:13;;;;;;;37.03;25.40;;;9.70;93.70;;;;;;5070843;28;38587;-58
2022/03/25 07:49:43;;;;;;;34.13;23.73;;;9.90;93.40;;;;;;5068612;27;36894;-58
2022/03/25 07:52:11;;;;;;;34.00;23.95;;;9.90;92.70;;;;;;5070542;28;36859;-57
2022/03/25 07:54:39;;;;;;;39.00;24.48;;;10.00;92.40;;;;;;5066273;28;38064;-57
2022/03/25 07:57:06;;;;;;;36.72;23.77;;;10.20;92.50;;;;;;5070154;27;37827;-57
2022/03/25 07:59:34;;;;;;;34.65;23.48;;;10.30;92.20;;;;;;5070727;27;36311;-58
2022/03/25 08:02:01;;;;;;;34.05;22.70;;;10.50;91.70;;;;;;5070341;28;37228;-58
2022/03/25 08:04:28;;;;;;;35.47;21.77;;;10.80;91.30;;;;;;5070385;27;37932;-58
2022/03/25 08:06:57;;;;;;;30.92;21.85;;;11.20;89.60;;;;;;5069668;27;36279;-58
2022/03/25 08:09:24;;;;;;;34.17;21.52;;;11.50;85.70;;;;;;5069878;27;36363;-58
2022/03/25 08:11:52;;;;;;;30.40;21.17;;;11.70;81.10;;;;;;5070978;27;37551;-58
2022/03/25 08:14:19;;;;;;;29.35;19.80;;;11.80;79.80;;;;;;5069006;28;36762;-58
2022/03/25 08:16:47;;;;;;;30.75;19.95;;;12.00;77.90;;;;;;5069285;27;36266;-58
2022/03/25 08:19:15;;;;;;;29.05;20.05;;;12.40;77.10;;;;;;5070749;27;38460;-58
2022/03/25 08:21:42;;;;;;;29.73;20.48;;;12.80;74.50;;;;;;5069402;27;37874;-57
2022/03/25 08:29:41;;;;;;;28.10;19.50;;;13.40;67.00;;;;;;5069097;28;39001;-58
2022/03/25 08:32:08;;;;;;;29.67;18.42;;;13.50;66.80;;;;;;5069696;28;38986;-57
2022/03/25 08:34:36;;;;;;;27.45;18.33;;;13.50;66.00;;;;;;5070225;27;37186;-56
2022/03/25 08:37:03;;;;;;;24.17;17.05;;;13.60;65.30;;;;;;5068834;28;37382;-58
2022/03/25 08:39:32;;;;;;;29.40;18.00;;;13.70;64.50;;;;;;5069987;28;39046;-58
2022/03/25 08:41:59;;;;;;;27.92;18.33;;;13.80;64.30;;;;;;5068699;27;36136;-58
2022/03/25 08:44:27;;;;;;;25.23;17.98;;;14.10;64.00;;;;;;5067256;27;36998;-58
2022/03/25 08:46:54;;;;;;;27.23;18.73;;;14.40;63.30;;;;;;5069130;28;37982;-58
2022/03/25 08:49:22;;;;;;;27.10;17.73;;;14.60;63.30;;;;;;5069124;27;37830;-58
2022/03/25 08:51:49;;;;;;;27.80;17.90;;;14.80;62.20;;;;;;5069672;27;37171;-58
2022/03/25 08:54:18;;;;;;;25.75;19.15;;;15.00;61.70;;;;;;5069576;28;36931;-56
2022/03/25 08:56:48;;;;;;;31.55;19.20;;;15.10;62.00;;;;;;5068865;27;38018;-57
2022/03/25 08:59:15;;;;;;;27.67;18.38;;;15.20;61.10;;;;;;5068654;27;38000;-58
2022/03/25 09:01:44;;;;;;;28.83;17.60;;;15.30;60.20;;;;;;5069309;27;38751;-58
2022/03/25 09:04:11;;;;;;;27.13;19.65;;;15.50;59.10;;;;;;5068566;27;36568;-58
2022/03/25 09:06:42;;;;;;;26.00;17.60;;;15.70;58.40;;;;;;5069408;27;37969;-58
2022/03/25 09:09:09;;;;;;;28.02;19.00;;;16.00;56.50;;;;;;5069627;27;37347;-58
2022/03/25 09:11:38;;;;;;;32.35;19.05;;;16.30;56.20;;;;;;5069055;28;38354;-57
2022/03/25 09:14:06;;;;;;;26.80;17.50;;;16.70;54.80;;;;;;5067943;27;37072;-58
2022/03/25 09:16:34;;;;;;;24.13;15.95;;;17.00;54.40;;;;;;5069043;27;37542;-58
2022/03/25 09:19:01;;;;;;;28.92;17.27;;;17.10;53.60;;;;;;5069421;28;38830;-58
2022/03/25 09:21:29;;;;;;;26.92;17.13;;;17.30;53.10;;;;;;5068520;28;37978;-58
2022/03/25 09:23:56;;;;;;;25.85;16.85;;;17.60;51.40;;;;;;5067715;27;38724;-58
2022/03/25 09:26:25;;;;;;;23.42;16.17;;;18.00;49.70;;;;;;5068823;27;36316;-59
2022/03/25 09:28:52;;;;;;;27.77;15.90;;;18.30;48.20;;;;;;5069670;27;36421;-58
2022/03/25 09:31:21;;;;;;;26.88;15.68;;;18.70;47.60;;;;;;5067890;27;37511;-58
2022/03/25 09:33:48;;;;;;;24.85;17.13;;;19.10;46.20;;;;;;5069490;28;36468;-58
2022/03/25 09:36:16;;;;;;;22.33;16.30;;;19.30;45.80;;;;;;5069049;27;37628;-58
2022/03/25 09:38:43;;;;;;;27.65;17.17;;;19.50;45.30;;;;;;5069171;28;38195;-58
2022/03/25 09:41:11;;;;;;;22.08;15.23;;;19.40;45.60;;;;;;5069645;27;37199;-58
2022/03/25 09:43:40;;;;;;;21.80;14.52;;;19.40;45.00;;;;;;5068759;28;36668;-53
2022/03/25 09:46:07;;;;;;;24.73;16.08;;;19.40;43.90;;;;;;5068770;27;38577;-52
2022/03/25 09:48:36;;;;;;;23.80;15.18;;;19.40;43.80;;;;;;5068504;27;36333;-51
2022/03/25 09:51:03;;;;;;;30.05;16.50;;;19.40;43.80;;;;;;5067319;27;36107;-52
2022/03/25 09:53:31;;;;;;;22.30;15.30;;;19.20;43.90;;;;;;5066803;27;36129;-52
2022/03/25 09:55:59;;;;;;;25.45;15.07;;;19.00;44.10;;;;;;5069086;28;37765;-52
2022/03/25 09:58:28;;;;;;;26.20;15.25;;;19.10;43.90;;;;;;5067084;28;36433;-51
2022/03/25 10:00:55;;;;;;;22.27;15.07;;;19.20;43.00;;;;;;5069065;28;37357;-52
2022/03/25 10:03:24;;;;;;;24.65;14.77;;;19.30;42.00;;;;;;5067888;27;36700;-52
2022/03/25 10:05:58;;;;;;;26.02;15.98;;;19.30;42.20;;;;;;5068566;28;36278;-51
2022/03/25 10:08:32;;;;;;;27.80;16.30;;;19.20;41.70;;;;;;5069257;27;37345;-52
2022/03/25 10:11:18;;;;;;;25.10;15.50;;;19.20;41.50;;;;;;5068158;28;39921;-58
2022/03/25 10:13:46;;;;;;;25.65;15.63;;;19.30;40.80;;;;;;5068573;28;20135;-58
2022/03/25 10:16:27;;;;;;;23.83;15.70;;;19.40;41.40;;;;;;5068788;28;37979;-58
2022/03/25 10:18:56;;;;;;;26.77;15.80;;;19.70;40.80;;;;;;5069031;28;38134;-58
2022/03/25 10:21:24;;;;;;;22.42;15.18;;;20.00;39.20;;;;;;5067716;28;39294;-57
2022/03/25 10:23:52;;;;;;;24.67;16.25;;;20.30;38.70;;;;;;5069202;27;37663;-58
2022/03/25 10:26:19;;;;;;;23.17;16.05;;;20.40;37.90;;;;;;5068745;28;37957;-57
2022/03/25 10:28:50;;;;;;;27.20;17.30;;;20.60;37.90;;;;;;5068129;27;37863;-58
2022/03/25 10:31:18;;;;;;;28.83;16.85;;;20.70;37.00;;;;;;5066278;27;38743;-58
2022/03/25 10:33:47;;;;;;;27.77;17.63;;;20.70;37.40;;;;;;5065654;27;36655;-58
2022/03/25 10:36:16;;;;;;;25.40;17.52;;;21.10;36.70;;;;;;5066222;27;37909;-58
2022/03/25 10:38:47;;;;;;;31.10;18.67;;;21.40;35.80;;;;;;5068338;27;38792;-52
2022/03/25 10:41:16;;;;;;;28.90;17.50;;;21.70;35.10;;;;;;5068466;27;37854;-51
2022/03/25 10:43:55;;;;;;;29.85;19.25;;;22.10;34.40;;;;;;5068186;27;37553;-53
2022/03/25 10:46:30;;;;;;;33.83;18.08;;;22.30;34.00;;;;;;5065452;27;38941;-52
2022/03/25 10:48:58;;;;;;;24.38;17.58;;;22.40;33.20;;;;;;5066731;28;37775;-51
2022/03/25 10:51:26;;;;;;;28.73;18.08;;;22.30;34.10;;;;;;5066093;28;37484;-51
2022/03/25 10:53:58;;;;;;;25.38;17.10;;;22.10;34.80;;;;;;5068695;27;36976;-51
2022/03/25 10:56:27;;;;;;;28.02;18.17;;;21.80;34.60;;;;;;5067472;28;36338;-52
2022/03/25 10:58:56;;;;;;;26.10;17.45;;;21.50;35.70;;;;;;5066319;28;36689;-51
2022/03/25 11:01:24;;;;;;;27.50;18.98;;;21.30;36.30;;;;;;5067766;28;37423;-50
2022/03/25 11:03:54;;;;;;;30.23;19.15;;;21.20;37.10;;;;;;5066961;27;37914;-53
2022/03/25 11:06:21;;;;;;;30.50;18.95;;;21.00;37.50;;;;;;5065520;28;37773;-51
2022/03/25 11:08:49;;;;;;;30.65;19.45;;;20.80;37.10;;;;;;5065951;28;38173;-52
2022/03/25 11:11:18;;;;;;;29.55;19.13;;;20.60;37.50;;;;;;5063085;28;37251;-51
2022/03/25 11:13:46;;;;;;;25.92;18.63;;;20.40;37.50;;;;;;5063375;27;37482;-51
2022/03/25 11:16:16;;;;;;;32.53;18.13;;;20.20;38.30;;;;;;5064737;28;37872;-51
2022/03/25 11:18:45;;;;;;;30.23;19.88;;;20.10;38.70;;;;;;5061931;27;39038;-51
2022/03/25 11:21:14;;;;;;;30.10;20.58;;;20.00;38.20;;;;;;5062978;27;38088;-51
2022/03/25 11:23:48;;;;;;;31.90;20.00;;;20.00;37.80;;;;;;5062918;27;36913;-52
2022/03/25 11:26:20;;;;;;;29.20;19.15;;;20.00;39.00;;;;;;5063731;28;37442;-51
2022/03/25 11:28:52;;;;;;;25.38;18.10;;;20.00;38.80;;;;;;5063510;27;38218;-52
2022/03/25 11:31:19;;;;;;;26.70;18.30;;;19.90;39.20;;;;;;5063803;27;35069;-50
2022/03/25 11:34:06;;;;;;;33.17;17.83;;;19.90;39.60;;;;;;5065538;28;36720;-51
2022/03/25 11:36:33;;;;;;;32.85;18.75;;;19.80;38.90;;;;;;5065766;27;38955;-51
2022/03/25 11:39:28;;;;;;;29.30;16.48;;;19.70;39.20;;;;;;5066087;28;37801;-50
2022/03/25 11:42:04;;;;;;;28.00;17.65;;;19.70;39.60;;;;;;5044831;27;38232;-52
2022/03/25 11:44:33;;;;;;;25.75;16.83;;;19.60;38.10;;;;;;5066592;27;35580;-52
2022/03/25 11:47:24;;;;;;;27.10;15.48;;;19.50;38.70;;;;;;5066967;27;37194;-52
2022/03/25 11:49:51;;;;;;;27.88;15.90;;;19.40;38.30;;;;;;5053494;27;38356;-48
2022/03/25 11:52:33;;;;;;;27.80;15.93;;;19.50;39.80;;;;;;5071623;28;36024;-52
2022/03/25 11:55:02;;;;;;;25.02;13.75;;;19.50;37.70;;;;;;5069873;28;37894;-51
2022/03/25 11:57:33;;;;;;;23.73;13.40;;;19.50;38.40;;;;;;5068278;27;37711;-49
2022/03/25 12:00:03;;;;;;;22.25;12.50;;;19.40;37.30;;;;;;5068250;27;38131;-52
2022/03/25 12:02:33;;;;;;;21.80;12.25;;;19.40;37.30;;;;;;5065760;27;36901;-51
2022/03/25 12:05:02;;;;;;;22.92;12.60;;;19.30;37.40;;;;;;5067760;27;36788;-52
2022/03/25 12:07:29;;;;;;;22.88;12.05;;;19.30;37.20;;;;;;5067384;27;39250;-52
2022/03/25 12:09:58;;;;;;;22.73;11.52;;;19.20;36.10;;;;;;5067319;27;36426;-51
2022/03/25 12:12:55;;;;;;;23.38;11.95;;;19.10;35.80;;;;;;5068783;28;37833;-52
2022/03/25 12:15:41;;;;;;;22.73;11.95;;;19.10;35.60;;;;;;5068245;28;36699;-50
2022/03/25 12:18:40;;;;;;;26.70;15.95;;;19.00;37.50;;;;;;5069971;27;38371;-51
2022/03/25 12:21:29;;;;;;;27.42;15.00;;;18.90;38.30;;;;;;5069813;28;37900;-52
2022/03/25 12:23:58;;;;;;;24.92;16.83;;;18.80;39.10;;;;;;5069868;27;38811;-51
2022/03/25 12:26:32;;;;;;;28.23;17.30;;;18.60;39.80;;;;;;5070179;28;36974;-52
2022/03/25 12:29:01;;;;;;;26.15;17.25;;;18.50;40.00;;;;;;5069088;28;37854;-52
2022/03/25 12:31:29;;;;;;;25.40;18.38;;;18.30;40.60;;;;;;5068147;28;37558;-52
2022/03/25 12:34:00;;;;;;;30.42;19.15;;;18.10;41.00;;;;;;5070764;28;36115;-52
2022/03/25 12:36:34;;;;;;;24.85;17.88;;;17.90;41.80;;;;;;5069821;28;36790;-52
2022/03/25 12:39:02;;;;;;;26.70;18.70;;;17.70;41.50;;;;;;5069308;28;40386;-51
2022/03/25 12:41:31;;;;;;;26.13;19.00;;;17.60;42.10;;;;;;5069864;27;37530;-51
2022/03/25 12:44:00;;;;;;;29.42;19.23;;;17.60;42.30;;;;;;5068288;27;37255;-50
2022/03/25 12:46:29;;;;;;;27.08;18.55;;;17.40;41.40;;;;;;5068818;28;36535;-48